NCAR-RAP Real-Time Weather Data

Output produced by METARs form (17 September 2019  16:49 UTC)
found at http://weather.rap.ucar.edu/surface/
 
KIPT 171554Z VRB04KT 10SM CLR 21/08 A3019 RMK AO2 SLP221 T02110083
KIPT 171454Z 00000KT 10SM CLR 19/09 A3019 RMK AO2 SLP222 T01890089 51005
KIPT 171354Z VRB04KT 10SM CLR 18/10 A3019 RMK AO2 SLP222 T01780100
KIPT 171254Z 23003KT 10SM CLR 16/12 A3019 RMK AO2 SLP222 T01560117
KIPT 171154Z 00000KT 10SM CLR 13/11 A3018 RMK AO2 SLP218 T01330111 10167 20111 53019
KIPT 171054Z 00000KT 10SM CLR 12/11 A3016 RMK AO2 SLP211 T01170106
KIPT 170954Z AUTO 00000KT 10SM CLR 13/11 A3014 RMK AO2 SLP203 T01330106
KIPT 170854Z AUTO 00000KT 10SM CLR 13/12 A3012 RMK AO2 SLP197 T01280117 53003
KIPT 170754Z AUTO 00000KT 10SM CLR 14/12 A3012 RMK AO2 SLP196 T01440122
KIPT 170654Z AUTO 00000KT 10SM CLR 15/13 A3011 RMK AO2 SLP194 T01500128
KIPT 170554Z AUTO 00000KT 10SM CLR 17/13 A3011 RMK AO2 SLP193 T01670128 10217 20167 53012
KIPT 170454Z AUTO 36004KT 10SM CLR 18/13 A3010 RMK AO2 SLP189 T01830133 402720178
KIPT 170354Z AUTO 00000KT 10SM BKN070 19/14 A3008 RMK AO2 SLP185 T01940144
KIPT 170254Z AUTO 00000KT 10SM OVC075 19/16 A3008 RMK AO2 SLP182 T01940161 51015
KIPT 170054Z 00000KT 10SM FEW026 BKN055 OVC075 20/18 A3005 RMK AO2 SLP174 T02000178
KIPT 162354Z VRB04KT 10SM SCT055 21/17 A3003 RMK AO2 SLP167 T02110172 10272 20211 53010
KIPT 162254Z 02003KT 10SM SCT039 BKN055 23/17 A3002 RMK AO2 SLP162 T02330167
KIPT 162154Z 01006KT 10SM BKN049 BKN070 24/17 A3000 RMK AO2 SLP157 T02440167
KIPT 162054Z 03006KT 10SM FEW045 BKN075 25/16 A3000 RMK AO2 SLP157 T02500161 56009
KIPT 161954Z 31005KT 10SM FEW060 BKN070 26/16 A3001 RMK AO2 SLP157 T02610156